Terminal Aerodrome Forecast
Issued by NWS

Home | Current Version | Previous Version | Graphics & Text | Print | Product List | Glossary On
Versions: 1 2 3 4 5 6 7 8 9 10 11 12 13 14 15 16 17
000
FTUS43 KUNR 052324
TAFGCC
TAF
KGCC 052324Z 0600/0624 15020G30KT P6SM BKN200
     FM060300 16012KT P6SM SCT040 BKN200
     FM061100 33015KT 4SM -RA BR OVC015=

USA.gov is the U.S. government's official web portal to all federal, state and local government web resources and services.